Pagina principale
METAR-TAF:

METAR-TAF

Aeroporti :

Aeroporto di Tunisi-Cartagine

Tunisi, Tunisia

latitudine: 36-50N, longitudine: 010-14E, altezza: 3 m

Osservazione

Il bollettino è stato emesso 16 minuti fa, alle 21:00 UTC
Vento 2 kt da nord/nord-ovest
Temperature 18°C
Umidità 88%
Pressione 1012 hPa
Visibilità 10 km o più
Nubi sparse ad un'altezza di 2600 ft

METAR: DTTA 202100Z 34002KT 9999 SCT026 18/16 Q1012 NOSIG

Ora: 22:16 (21:16 UTC)

Previsione

Il bollettino è stato emesso 4 ore e 16 minuti fa, alle 17:00 UTC
Previsione valida dal 20 alle 18 UTC al 21 alle 18 UTC
Vento 8 kt da nord
Visibilità 10 km o più
Poco nuvoloso ad un'altezza di 3300 ft

TAF: DTTA 201700Z 2018/2118 01008KT 9999 FEW033

Osservazioni e previsioni meteorologiche di più di 4000 aeroporti (messaggi METAR e TAF).

Le stazioni disponibili sono rappresentate dai dischi gialli e rossi sulla carta.

Puntare il mouse per vedere il nome della stazione.

Clicca sopra per visualizzare le osservazioni e previsioni meteorologiche.

Per cambiare la mappa : fare clic sui pulsanti verdi con una croce nera per ingrandire, il pulsante verde con un trattino per diminuire, o sulla freccia verde per le mappe adiacenti.


METAR-TAF: